Time;durP1;ratioP1;P1;durP2;ratioP2;P2;SDS_P1;SDS_P2;PMS_P1;PMS_P2;Temp;Humidity;BMP_temperature;BMP_pressure;BME280_temperature;BME280_humidity;BME280_pressure;Samples;Min_cycle;Max_cycle;Signal;HPM_P1;HPM_P2
2021/09/11 00:01:41;;;;;;;;;;;;;;;12.48;77.67;100341.28;5019278;28;20373;-79
2021/09/11 00:04:08;;;;;;;;;;;;;;;12.47;78.23;100351.72;4999697;28;19924;-77
2021/09/11 00:06:33;;;;;;;;;;;;;;;12.45;77.66;100358.72;4989409;28;19917;-77
2021/09/11 00:08:59;;;;;;;;;;;;;;;12.37;77.90;100350.09;4992224;28;19917;-77
2021/09/11 00:11:25;;;;;;;;;;;;;;;12.33;77.92;100351.84;5023270;28;19967;-78
2021/09/11 00:13:50;;;;;;;;;;;;;;;12.30;78.10;100363.16;5009794;28;19928;-78
2021/09/11 00:16:16;;;;;;;;;;;;;;;12.30;78.09;100357.09;5008127;28;20352;-76
2021/09/11 00:18:41;;;;;;;;;;;;;;;12.27;78.03;100354.50;5008765;28;20346;-76
2021/09/11 00:21:07;;;;;;;;;;;;;;;12.23;77.66;100352.78;5002830;28;19927;-77
2021/09/11 00:23:32;;;;;;;;;;;;;;;12.18;77.86;100351.06;5008628;28;19917;-75
2021/09/11 00:25:59;;;;;;;;;;;;;;;12.16;77.68;100354.56;5021040;28;19921;-79
2021/09/11 00:28:27;;;;;;;;;;;;;;;12.10;77.86;100352.00;5023559;28;19939;-77
2021/09/11 00:30:54;;;;;;;;;;;;;;;12.08;77.83;100351.16;5020273;28;20525;-79
2021/09/11 00:33:20;;;;;;;;;;;;;;;12.04;77.69;100351.16;4988183;28;19924;-77
2021/09/11 00:35:45;;;;;;;;;;;;;;;12.06;78.20;100361.59;5020612;28;19917;-78
2021/09/11 00:38:12;;;;;;;;;;;;;;;12.07;77.68;100358.13;5021911;28;20455;-77
2021/09/11 00:40:37;;;;;;;;;;;;;;;12.10;78.05;100362.44;5021091;28;19925;-77
2021/09/11 00:43:03;;;;;;;;;;;;;;;12.14;77.98;100364.16;5008572;28;19944;-77
2021/09/11 00:45:29;;;;;;;;;;;;;;;12.18;77.77;100360.66;5003597;28;19924;-79
2021/09/11 00:47:55;;;;;;;;;;;;;;;12.18;77.67;100355.44;5009661;28;20365;-76
2021/09/11 00:50:20;;;;;;;;;;;;;;;12.16;77.46;100351.97;5002876;28;19923;-75
2021/09/11 00:52:46;;;;;;;;;;;;;;;12.12;77.31;100358.06;5012610;28;19924;-77
2021/09/11 00:55:13;;;;;;;;;;;;;;;12.10;77.52;100358.09;5019775;28;19917;-78
2021/09/11 00:57:46;;;;;;;;;;;;;;;11.92;77.57;100322.53;5012838;28;20015;-78
2021/09/11 01:00:12;;;;;;;;;;;;;;;12.17;77.62;100358.94;5041263;28;19924;-79
2021/09/11 01:02:38;;;;;;;;;;;;;;;12.23;77.56;100363.22;5028176;28;19921;-76
2021/09/11 01:05:05;;;;;;;;;;;;;;;12.27;77.49;100360.56;5022927;28;19943;-77
2021/09/11 01:07:31;;;;;;;;;;;;;;;12.32;77.52;100361.41;5040185;28;19916;-78
2021/09/11 01:09:58;;;;;;;;;;;;;;;12.34;77.42;100367.50;5040506;28;19974;-77
2021/09/11 01:12:23;;;;;;;;;;;;;;;12.26;76.82;100368.44;5023448;28;20292;-79
2021/09/11 01:14:49;;;;;;;;;;;;;;;12.27;77.24;100365.78;5041275;28;19961;-77
2021/09/11 01:17:15;;;;;;;;;;;;;;;12.34;77.27;100367.50;5027208;28;19917;-79
2021/09/11 01:19:41;;;;;;;;;;;;;;;12.39;77.27;100364.00;5026433;28;19916;-78
2021/09/11 01:22:11;;;;;;;;;;;;;;;12.43;77.08;100371.78;5040289;28;19917;-78
2021/09/11 01:24:37;;;;;;;;;;;;;;;12.49;77.10;100368.25;5041250;28;19928;-78
2021/09/11 01:27:03;;;;;;;;;;;;;;;12.52;77.07;100370.84;5027117;28;20229;-79
2021/09/11 01:29:28;;;;;;;;;;;;;;;12.54;76.83;100376.91;5013415;28;19975;-77
2021/09/11 01:31:54;;;;;;;;;;;;;;;12.57;76.88;100370.81;5049365;28;19920;-77
2021/09/11 01:34:19;;;;;;;;;;;;;;;12.60;76.84;100371.66;5033126;28;19917;-76
2021/09/11 01:36:45;;;;;;;;;;;;;;;12.62;76.66;100372.50;5040610;28;20637;-78
2021/09/11 01:39:12;;;;;;;;;;;;;;;12.65;76.82;100369.00;5023677;28;20011;-76
2021/09/11 01:41:37;;;;;;;;;;;;;;;12.67;76.46;100379.44;5040516;28;19921;-79
2021/09/11 01:44:03;;;;;;;;;;;;;;;12.68;76.69;100370.75;5020357;28;19917;-78
2021/09/11 01:46:28;;;;;;;;;;;;;;;12.65;76.57;100372.50;5018473;28;19955;-78
2021/09/11 01:48:54;;;;;;;;;;;;;;;12.67;76.54;100379.44;5028286;28;19970;-79
2021/09/11 01:51:20;;;;;;;;;;;;;;;12.69;76.53;100373.31;5021591;28;19955;-78
2021/09/11 01:53:46;;;;;;;;;;;;;;;12.71;76.49;100375.91;5038671;28;20058;-79
2021/09/11 01:56:11;;;;;;;;;;;;;;;12.72;75.90;100377.63;5005938;28;19951;-78
2021/09/11 01:58:37;;;;;;;;;;;;;;;12.68;76.34;100373.34;5026958;28;20273;-78
2021/09/11 02:01:03;;;;;;;;;;;;;;;12.70;76.42;100376.78;5021631;28;19920;-79
2021/09/11 02:03:28;;;;;;;;;;;;;;;12.72;76.41;100382.84;5039798;28;19920;-79
2021/09/11 02:05:54;;;;;;;;;;;;;;;12.76;76.36;100379.34;5023114;28;19912;-78
2021/09/11 02:08:19;;;;;;;;;;;;;;;12.80;76.10;100378.44;5026162;28;19923;-77
2021/09/11 02:10:45;;;;;;;;;;;;;;;12.84;75.93;100381.88;5025514;28;20405;-77
2021/09/11 02:13:10;;;;;;;;;;;;;;;12.83;76.00;100382.75;5040288;28;19973;-77
2021/09/11 02:15:36;;;;;;;;;;;;;;;12.85;75.82;100389.72;5024131;28;19923;-77
2021/09/11 02:18:01;;;;;;;;;;;;;;;12.90;75.85;100387.94;5010622;28;20410;-78
2021/09/11 02:20:27;;;;;;;;;;;;;;;12.92;75.89;100380.94;5022894;28;19920;-76
2021/09/11 02:22:52;;;;;;;;;;;;;;;12.93;75.89;100372.22;5043301;28;19966;-77
2021/09/11 02:25:18;;;;;;;;;;;;;;;12.96;75.96;100374.81;5043114;28;19927;-78
2021/09/11 02:27:43;;;;;;;;;;;;;;;12.92;75.60;100370.50;5042166;28;19999;-77
2021/09/11 02:30:11;;;;;;;;;;;;;;;12.88;75.38;100374.03;5040965;28;19980;-77
2021/09/11 02:32:38;;;;;;;;;;;;;;;12.82;76.06;100376.69;5006325;28;19924;-77
2021/09/11 02:35:04;;;;;;;;;;;;;;;12.74;74.95;100375.88;5040220;28;19917;-78
2021/09/11 02:37:30;;;;;;;;;;;;;;;12.62;75.74;100377.72;5025513;28;19967;-76
2021/09/11 02:39:55;;;;;;;;;;;;;;;12.68;75.94;100378.56;5040322;28;19983;-78
2021/09/11 02:42:21;;;;;;;;;;;;;;;12.73;75.71;100377.66;5024212;28;21146;-78
2021/09/11 02:44:46;;;;;;;;;;;;;;;12.74;75.38;100378.50;5024057;28;19963;-78
2021/09/11 02:47:12;;;;;;;;;;;;;;;12.75;75.57;100378.50;5043464;28;19916;-78
2021/09/11 02:49:37;;;;;;;;;;;;;;;12.70;75.49;100369.84;5027403;28;19928;-77
2021/09/11 02:52:03;;;;;;;;;;;;;;;12.67;75.42;100367.25;5021272;28;19921;-78
2021/09/11 02:54:29;;;;;;;;;;;;;;;12.65;75.44;100377.72;4995229;28;19928;-77
2021/09/11 02:56:54;;;;;;;;;;;;;;;12.62;75.40;100374.25;5038831;28;19960;-77
2021/09/11 02:59:20;;;;;;;;;;;;;;;12.53;75.08;100374.34;5022119;28;19917;-79
2021/09/11 03:01:46;;;;;;;;;;;;;;;12.45;75.47;100372.63;5021855;28;20472;-78
2021/09/11 03:04:11;;;;;;;;;;;;;;;12.45;75.51;100374.41;5007740;28;20180;-79
2021/09/11 03:06:37;;;;;;;;;;;;;;;12.43;75.37;100368.31;5041029;28;19921;-77
2021/09/11 03:09:03;;;;;;;;;;;;;;;12.40;75.69;100357.91;5021287;28;19917;-78
2021/09/11 03:11:28;;;;;;;;;;;;;;;12.33;75.41;100360.53;5020630;28;21345;-77
2021/09/11 03:13:54;;;;;;;;;;;;;;;12.31;75.65;100369.28;5025644;28;19924;-77
2021/09/11 03:16:19;;;;;;;;;;;;;;;12.23;74.99;100363.22;5022169;28;20064;-78
2021/09/11 03:18:45;;;;;;;;;;;;;;;12.01;75.05;100358.16;5024342;28;19928;-78
2021/09/11 03:21:10;;;;;;;;;;;;;;;11.96;75.66;100358.16;5038275;28;19920;-77
2021/09/11 03:23:36;;;;;;;;;;;;;;;11.96;75.75;100355.53;5039874;28;20392;-77
2021/09/11 03:26:02;;;;;;;;;;;;;;;11.94;75.51;100365.09;5037936;28;19924;-77
2021/09/11 03:28:27;;;;;;;;;;;;;;;11.83;75.48;100352.13;5007967;28;19917;-76
2021/09/11 03:30:53;;;;;;;;;;;;;;;11.72;75.31;100361.72;5039625;28;20364;-77
2021/09/11 03:33:19;;;;;;;;;;;;;;;11.66;75.44;100367.00;5028180;28;19943;-77
2021/09/11 03:35:44;;;;;;;;;;;;;;;11.63;75.42;100367.84;5025607;28;19936;-77
2021/09/11 03:38:10;;;;;;;;;;;;;;;11.62;75.81;100366.13;5008698;28;19916;-77
2021/09/11 03:40:35;;;;;;;;;;;;;;;11.69;76.39;100370.44;5028258;28;20407;-78
2021/09/11 03:43:02;;;;;;;;;;;;;;;11.82;76.47;100368.66;5043118;28;19924;-78
2021/09/11 03:45:28;;;;;;;;;;;;;;;11.95;76.40;100365.97;5046427;28;19998;-77
2021/09/11 03:47:53;;;;;;;;;;;;;;;12.04;76.21;100361.59;5029284;28;19971;-78
2021/09/11 03:50:19;;;;;;;;;;;;;;;12.10;76.02;100367.66;5013046;28;20016;-79
2021/09/11 03:52:44;;;;;;;;;;;;;;;12.25;76.36;100371.91;5043529;28;19924;-77
2021/09/11 03:55:11;;;;;;;;;;;;;;;12.36;76.24;100375.31;5012589;28;19921;-78
2021/09/11 03:57:36;;;;;;;;;;;;;;;12.43;75.39;100383.97;5045696;28;19920;-77
2021/09/11 04:00:03;;;;;;;;;;;;;;;12.50;75.63;100388.25;5043760;28;20341;-78
2021/09/11 04:02:36;;;;;;;;;;;;;;;12.69;75.96;100378.53;5044823;28;19916;-77
2021/09/11 04:05:02;;;;;;;;;;;;;;;12.84;75.06;100379.28;5061649;28;19935;-77
2021/09/11 04:07:28;;;;;;;;;;;;;;;12.93;75.05;100398.34;5051781;28;19924;-77
2021/09/11 04:09:53;;;;;;;;;;;;;;;13.07;75.40;100387.75;5040016;28;19966;-80
2021/09/11 04:12:19;;;;;;;;;;;;;;;13.14;74.75;100385.94;5042491;28;19928;-77
2021/09/11 04:14:44;;;;;;;;;;;;;;;13.30;75.14;100388.44;5012970;28;19948;-77
2021/09/11 04:17:10;;;;;;;;;;;;;;;13.53;75.09;100378.59;5042396;28;19922;-77
2021/09/11 04:19:36;;;;;;;;;;;;;;;13.71;74.20;100379.25;5025260;28;20391;-77
2021/09/11 04:22:01;;;;;;;;;;;;;;;13.88;74.45;100380.78;5025159;28;19979;-78
2021/09/11 04:24:27;;;;;;;;;;;;;;;14.12;73.97;100383.06;5028444;28;19917;-77
2021/09/11 04:26:53;;;;;;;;;;;;;;;14.40;73.93;100384.41;5028999;28;19916;-78
2021/09/11 04:29:18;;;;;;;;;;;;;;;14.70;73.69;100377.84;5042141;28;21379;-78
2021/09/11 04:31:44;;;;;;;;;;;;;;;15.00;73.19;100378.22;5011784;28;19916;-77
2021/09/11 04:34:09;;;;;;;;;;;;;;;15.27;72.44;100378.59;5031133;28;20423;-78
2021/09/11 04:36:35;;;;;;;;;;;;;;;15.37;71.95;100371.41;5048678;28;20005;-78
2021/09/11 04:39:01;;;;;;;;;;;;;;;15.73;72.01;100368.06;5019500;28;19916;-79
2021/09/11 04:41:26;;;;;;;;;;;;;;;15.99;71.19;100366.69;5029749;28;19925;-77
2021/09/11 04:43:52;;;;;;;;;;;;;;;16.21;71.19;100362.66;5023844;28;19923;-78
2021/09/11 04:46:17;;;;;;;;;;;;;;;16.36;70.39;100366.66;4995292;28;19928;-79
2021/09/11 04:48:43;;;;;;;;;;;;;;;16.39;69.90;100371.00;5043353;28;19921;-77
2021/09/11 04:51:09;;;;;;;;;;;;;;;16.51;68.92;100367.22;5022392;28;19988;-78
2021/09/11 04:53:34;;;;;;;;;;;;;;;16.38;68.60;100358.78;5026731;28;20369;-78
2021/09/11 04:56:00;;;;;;;;;;;;;;;16.55;68.51;100368.88;5026973;28;20324;-80
2021/09/11 04:58:25;;;;;;;;;;;;;;;17.28;69.16;100356.50;5027756;28;19917;-78
2021/09/11 05:00:51;;;;;;;;;;;;;;;18.12;68.97;100354.91;5026309;28;20435;-77
2021/09/11 05:03:17;;;;;;;;;;;;;;;19.21;67.66;100356.59;5022499;28;19921;-77
2021/09/11 05:05:42;;;;;;;;;;;;;;;19.88;67.17;100346.25;5009967;28;19946;-79
2021/09/11 05:08:08;;;;;;;;;;;;;;;20.92;63.56;100340.25;5038786;28;19921;-78
2021/09/11 05:10:34;;;;;;;;;;;;;;;21.30;62.71;100344.78;5025403;28;20065;-77
2021/09/11 05:12:59;;;;;;;;;;;;;;;22.30;61.67;100341.03;5040504;28;20007;-76
2021/09/11 05:15:26;;;;;;;;;;;;;;;23.06;59.68;100338.09;5010863;28;19986;-77
2021/09/11 05:17:52;;;;;;;;;;;;;;;24.00;59.42;100332.19;5010987;28;19943;-77
2021/09/11 05:20:17;;;;;;;;;;;;;;;25.07;57.75;100325.97;5047084;28;20042;-78
2021/09/11 05:22:43;;;;;;;;;;;;;;;26.30;55.91;100321.75;5031831;28;20411;-79
2021/09/11 05:25:09;;;;;;;;;;;;;;;25.88;51.99;100320.09;4990138;28;19948;-78
2021/09/11 05:27:35;;;;;;;;;;;;;;;25.89;51.33;100319.13;5040553;28;19917;-78
2021/09/11 05:30:04;;;;;;;;;;;;;;;26.48;51.73;100321.50;5025452;28;19928;-79
2021/09/11 05:32:30;;;;;;;;;;;;;;;26.92;48.91;100322.09;5040257;28;19917;-78
2021/09/11 05:34:55;;;;;;;;;;;;;;;27.80;50.02;100313.22;5010220;28;19943;-79
2021/09/11 05:37:26;;;;;;;;;;;;;;;28.59;46.25;100308.31;5021873;28;20513;-78
2021/09/11 05:39:52;;;;;;;;;;;;;;;29.52;47.52;100306.47;5039147;28;19921;-78
2021/09/11 05:42:20;;;;;;;;;;;;;;;30.67;45.39;100305.09;5042660;28;19917;-79
2021/09/11 05:44:46;;;;;;;;;;;;;;;30.70;41.40;100302.16;5039166;28;20084;-77
2021/09/11 05:47:12;;;;;;;;;;;;;;;31.34;42.34;100306.41;5021950;28;19917;-78
2021/09/11 05:49:37;;;;;;;;;;;;;;;32.28;41.74;100296.28;5026117;28;19917;-77
2021/09/11 05:52:03;;;;;;;;;;;;;;;33.15;39.62;100296.22;5021439;28;19923;-78
2021/09/11 05:54:29;;;;;;;;;;;;;;;33.75;39.01;100301.16;5026311;28;20300;-78
2021/09/11 05:56:55;;;;;;;;;;;;;;;34.54;37.06;100295.94;4992385;28;19970;-77
2021/09/11 05:59:20;;;;;;;;;;;;;;;34.11;36.79;100296.78;5007172;28;19931;-79
2021/09/11 06:01:46;;;;;;;;;;;;;;;34.41;37.01;100298.19;5004726;28;20011;-78
2021/09/11 06:04:12;;;;;;;;;;;;;;;34.34;35.35;100297.97;5026982;28;19948;-79
2021/09/11 06:06:37;;;;;;;;;;;;;;;33.03;36.64;100304.47;5040612;28;20075;-77
2021/09/11 06:09:04;;;;;;;;;;;;;;;32.15;37.57;100302.75;5011729;28;20328;-78
2021/09/11 06:11:30;;;;;;;;;;;;;;;31.24;38.03;100302.88;5027224;28;19920;-79
2021/09/11 06:13:56;;;;;;;;;;;;;;;31.99;38.21;100292.56;5024622;28;20294;-79
2021/09/11 06:16:21;;;;;;;;;;;;;;;33.74;36.08;100295.88;5029681;28;19955;-79
2021/09/11 06:18:47;;;;;;;;;;;;;;;34.71;35.25;100296.06;5019340;28;19909;-78
2021/09/11 06:21:13;;;;;;;;;;;;;;;34.56;32.03;100289.53;5025297;28;19978;-80
2021/09/11 06:23:38;;;;;;;;;;;;;;;32.68;33.03;100291.66;5009245;28;19921;-80
2021/09/11 06:26:25;;;;;;;;;;;;;;;30.97;35.78;100298.06;5007796;28;19938;-78
2021/09/11 06:28:50;;;;;;;;;;;;;;;29.61;38.13;100301.19;5022287;28;19951;-78
2021/09/11 06:31:16;;;;;;;;;;;;;;;28.78;38.57;100310.44;5024387;28;20356;-79
2021/09/11 06:33:41;;;;;;;;;;;;;;;27.81;40.37;100316.72;5040109;28;20028;-78
2021/09/11 06:36:11;;;;;;;;;;;;;;;27.18;41.40;100316.75;5039257;28;19928;-78
2021/09/11 06:38:37;;;;;;;;;;;;;;;26.99;41.17;100318.03;5010531;28;20295;-77
2021/09/11 06:41:03;;;;;;;;;;;;;;;26.82;40.75;100313.00;5039988;28;19925;-78
2021/09/11 06:43:28;;;;;;;;;;;;;;;26.45;41.48;100309.19;5023133;28;19931;-79
2021/09/11 06:45:54;;;;;;;;;;;;;;;26.12;41.64;100313.19;5023511;28;19917;-76
2021/09/11 06:48:19;;;;;;;;;;;;;;;26.08;41.32;100314.31;5032831;28;19921;-78
2021/09/11 06:50:45;;;;;;;;;;;;;;;25.81;42.02;100316.97;5057454;28;19955;-78
2021/09/11 06:53:10;;;;;;;;;;;;;;;25.56;41.78;100319.38;5029809;28;19920;-79
2021/09/11 06:55:36;;;;;;;;;;;;;;;24.92;41.76;100324.25;5026106;28;20411;-78
2021/09/11 06:58:01;;;;;;;;;;;;;;;24.51;42.71;100325.75;5038783;28;20006;-79
2021/09/11 07:01:04;;;;;;;;;;;;;;;24.32;43.16;100329.47;5018403;28;19921;-78
2021/09/11 07:03:31;;;;;;;;;;;;;;;24.36;42.83;100325.69;5038147;28;19917;-80
2021/09/11 07:06:23;;;;;;;;;;;;;;;24.58;42.21;100331.53;5038882;28;19916;-80
2021/09/11 07:08:50;;;;;;;;;;;;;;;24.63;42.67;100325.00;4979104;28;19945;-77
2021/09/11 07:14:39;;;;;;;;;;;;;;;24.69;42.00;100325.59;4962568;28;20787;-79
2021/09/11 07:17:21;;;;;;;;;;;;;;;24.71;41.90;100331.69;4971707;28;19960;-79
2021/09/11 07:20:05;;;;;;;;;;;;;;;24.96;41.83;100339.91;4988128;28;20428;-76
2021/09/11 07:22:31;;;;;;;;;;;;;;;24.61;41.78;100324.22;5024934;28;19916;-79
2021/09/11 07:25:01;;;;;;;;;;;;;;;24.45;42.21;100313.66;5032498;28;20016;-76
2021/09/11 07:27:49;;;;;;;;;;;;;;;24.90;42.16;100337.63;5016846;28;19916;-79
2021/09/11 07:30:14;;;;;;;;;;;;;;;25.17;41.13;100330.69;5048226;28;20400;-78
2021/09/11 07:33:09;;;;;;;;;;;;;;;25.53;40.63;100319.59;5029320;28;19921;-78
2021/09/11 07:36:03;;;;;;;;;;;;;;;25.76;40.15;100317.25;5001100;28;19927;-77
2021/09/11 07:38:29;;;;;;;;;;;;;;;26.00;40.77;100316.63;5029742;28;19980;-77
2021/09/11 07:40:58;;;;;;;;;;;;;;;26.14;39.98;100316.63;5030599;28;20210;-78
2021/09/11 07:43:30;;;;;;;;;;;;;;;26.56;39.68;100319.16;5026384;28;19920;-78
2021/09/11 07:45:58;;;;;;;;;;;;;;;26.45;39.26;100317.22;5040503;28;19960;-78
2021/09/11 07:48:34;;;;;;;;;;;;;;;25.92;39.84;100310.94;5025917;28;20382;-77
2021/09/11 07:51:54;;;;;;;;;;;;;;;26.28;39.80;100312.16;5024947;28;19960;-78
2021/09/11 07:54:22;;;;;;;;;;;;;;;26.60;38.75;100309.09;5015365;28;19966;-78
2021/09/11 07:57:00;;;;;;;;;;;;;;;26.71;38.85;100297.69;5027829;28;19929;-78
2021/09/11 07:59:52;;;;;;;;;;;;;;;26.22;38.95;100264.56;5036689;28;19921;-76
2021/09/11 08:02:24;;;;;;;;;;;;;;;26.07;39.91;100288.59;5021032;28;19920;-77
2021/09/11 08:05:12;;;;;;;;;;;;;;;26.12;39.77;100291.84;5023525;28;19968;-79
2021/09/11 08:08:23;;;;;;;;;;;;;;;26.17;40.18;100288.88;5040551;28;19990;-76
2021/09/11 08:10:53;;;;;;;;;;;;;;;26.24;40.18;100284.84;4942257;28;19929;-79
2021/09/11 08:13:21;;;;;;;;;;;;;;;26.86;39.45;100286.00;4927327;28;19919;-79
2021/09/11 08:16:20;;;;;;;;;;;;;;;27.29;39.23;100274.09;4984618;28;19916;-78
2021/09/11 08:26:40;;;;;;;;;;;;;;;27.87;38.83;100273.50;5034164;28;20300;-78
2021/09/11 08:29:55;;;;;;;;;;;;;;;28.31;37.02;100265.78;4966382;28;19925;-77
2021/09/11 08:35:23;;;;;;;;;;;;;;;27.34;38.02;100284.47;4910602;29;19945;-77
2021/09/11 08:37:49;;;;;;;;;;;;;;;26.66;38.76;100279.34;4976963;28;20330;-79
2021/09/11 08:44:01;;;;;;;;;;;;;;;26.07;39.70;100272.59;4948499;28;19918;-77
2021/09/11 08:46:28;;;;;;;;;;;;;;;25.96;39.44;100280.44;4984624;28;20591;-78
2021/09/11 08:52:39;;;;;;;;;;;;;;;25.09;40.26;100281.47;5025526;28;19916;-78
2021/09/11 08:55:12;;;;;;;;;;;;;;;24.56;40.94;100286.44;5032730;28;20307;-78
2021/09/11 08:58:09;;;;;;;;;;;;;;;24.04;41.91;100283.22;5028858;28;20026;-79
2021/09/11 09:00:37;;;;;;;;;;;;;;;23.75;41.68;100282.19;5022719;28;19920;-78
2021/09/11 09:03:39;;;;;;;;;;;;;;;23.60;42.13;100279.47;5021677;28;19917;-79
2021/09/11 09:06:37;;;;;;;;;;;;;;;23.30;42.49;100276.69;5014453;28;20543;-77
2021/09/11 09:09:26;;;;;;;;;;;;;;;23.12;42.58;100283.84;5003317;28;19924;-79
2021/09/11 09:11:53;;;;;;;;;;;;;;;23.04;42.88;100275.44;4999440;28;19972;-78
2021/09/11 09:14:19;;;;;;;;;;;;;;;22.92;42.57;100276.94;5002387;28;20396;-77
2021/09/11 09:17:02;;;;;;;;;;;;;;;22.74;43.14;100276.97;5018252;28;20412;-79
2021/09/11 09:19:37;;;;;;;;;;;;;;;22.40;43.51;100268.06;4984632;28;19986;-78
2021/09/11 09:22:15;;;;;;;;;;;;;;;21.87;44.15;100268.03;5003919;28;20423;-78
2021/09/11 09:24:46;;;;;;;;;;;;;;;21.75;44.94;100273.91;4984775;28;19928;-75
2021/09/11 09:27:13;;;;;;;;;;;;;;;21.85;45.21;100264.59;4985902;28;19923;-77
2021/09/11 09:29:44;;;;;;;;;;;;;;;21.90;44.87;100267.88;5006107;28;19916;-79
2021/09/11 09:32:10;;;;;;;;;;;;;;;21.95;44.74;100265.88;5038530;28;19925;-78
2021/09/11 09:34:40;;;;;;;;;;;;;;;22.09;44.34;100259.03;5042135;28;20047;-77
2021/09/11 09:37:11;;;;;;;;;;;;;;;22.04;44.47;100263.69;5021893;28;19921;-78
2021/09/11 09:39:40;;;;;;;;;;;;;;;21.74;44.88;100264.25;5001985;28;20304;-78
2021/09/11 09:42:06;;;;;;;;;;;;;;;21.52;45.21;100260.81;5021800;28;19931;-77
2021/09/11 09:44:54;;;;;;;;;;;;;;;21.35;45.33;100253.66;5023610;28;19917;-78
2021/09/11 09:48:16;;;;;;;;;;;;;;;21.29;45.88;100263.69;5025523;28;20004;-79
2021/09/11 09:51:39;;;;;;;;;;;;;;;21.31;45.69;100249.44;5036494;28;19923;-78
2021/09/11 09:57:49;;;;;;;;;;;;;;;20.98;45.64;100249.19;5028493;28;20451;-79
2021/09/11 10:03:19;;;;;;;;;;;;;;;20.55;46.89;100254.56;5031228;28;20372;-77
2021/09/11 10:06:15;;;;;;;;;;;;;;;20.36;47.06;100250.09;5026465;28;20042;-78
2021/09/11 10:09:06;;;;;;;;;;;;;;;20.16;47.28;100257.06;5026933;28;20970;-77
2021/09/11 10:12:16;;;;;;;;;;;;;;;19.96;47.53;100254.41;5011490;28;20753;-77
2021/09/11 10:18:32;;;;;;;;;;;;;;;20.14;48.13;100243.06;5023036;28;19947;-78
2021/09/11 10:25:16;;;;;;;;;;;;;;;19.95;47.98;100202.50;5029679;28;19983;-78
2021/09/11 10:28:35;;;;;;;;;;;;;;;20.28;48.48;100233.69;5026124;28;19916;-78
2021/09/11 10:31:09;;;;;;;;;;;;;;;20.34;48.21;100233.44;5037589;28;19928;-80
2021/09/11 10:33:48;;;;;;;;;;;;;;;20.34;47.73;100225.50;5002522;28;19917;-78
2021/09/11 10:36:33;;;;;;;;;;;;;;;20.41;48.19;100226.94;5038028;28;19917;-77
2021/09/11 10:45:36;;;;;;;;;;;;;;;20.73;48.15;100215.91;4996362;28;19917;-78
2021/09/11 10:48:34;;;;;;;;;;;;;;;20.82;48.29;100212.03;5013837;28;19928;-79
2021/09/11 10:51:26;;;;;;;;;;;;;;;20.97;47.97;100221.03;5016966;28;19939;-78
2021/09/11 10:54:04;;;;;;;;;;;;;;;20.87;47.47;100212.66;5020774;28;20011;-77
2021/09/11 10:57:00;;;;;;;;;;;;;;;20.79;48.89;100212.16;4996442;28;19920;-77
2021/09/11 10:59:49;;;;;;;;;;;;;;;20.91;48.23;100214.22;5037189;28;19920;-78
2021/09/11 11:02:26;;;;;;;;;;;;;;;20.80;48.31;100206.78;5023321;28;19921;-80
2021/09/11 11:04:59;;;;;;;;;;;;;;;20.64;48.62;100197.81;5025119;28;19924;-77
2021/09/11 11:07:30;;;;;;;;;;;;;;;20.59;49.11;100198.84;5022392;28;19944;-78
2021/09/11 11:10:11;;;;;;;;;;;;;;;20.61;49.57;100193.53;5034739;28;20450;-78
2021/09/11 11:12:46;;;;;;;;;;;;;;;20.62;48.88;100200.53;5022165;28;20001;-79
2021/09/11 11:15:45;;;;;;;;;;;;;;;20.47;49.37;100186.19;5022685;28;20009;-77
2021/09/11 11:18:47;;;;;;;;;;;;;;;20.38;49.98;100195.38;5024472;28;19920;-78
2021/09/11 11:21:20;;;;;;;;;;;;;;;20.47;49.93;100184.41;5025537;28;19921;-78
2021/09/11 11:23:46;;;;;;;;;;;;;;;20.61;50.05;100180.31;5021633;28;19920;-76
2021/09/11 11:29:22;;;;;;;;;;;;;;;20.42;50.13;100174.97;5011968;28;19924;-79
2021/09/11 11:32:20;;;;;;;;;;;;;;;20.30;50.05;100171.06;5007881;28;19963;-77
2021/09/11 11:34:54;;;;;;;;;;;;;;;20.34;50.81;100171.78;5005926;28;20375;-79
2021/09/11 11:37:28;;;;;;;;;;;;;;;20.50;50.67;100158.75;4992341;28;19928;-77
2021/09/11 11:40:06;;;;;;;;;;;;;;;20.81;50.83;100165.34;4993480;28;19992;-77
2021/09/11 11:43:41;;;;;;;;;;;;;;;20.88;50.25;100156.19;5032773;28;20008;-80
2021/09/11 11:46:35;;;;;;;;;;;;;;;20.93;50.49;100156.84;5039165;28;19917;-78
2021/09/11 11:49:01;;;;;;;;;;;;;;;20.98;50.87;100156.63;5005208;28;20483;-77
2021/09/11 11:51:32;;;;;;;;;;;;;;;20.72;51.01;100148.94;5009991;28;19969;-79
2021/09/11 11:54:00;;;;;;;;;;;;;;;20.66;51.15;100154.50;4987595;28;20373;-77
2021/09/11 11:56:27;;;;;;;;;;;;;;;20.59;52.14;100145.16;4992286;28;20363;-78
2021/09/11 11:58:59;;;;;;;;;;;;;;;20.46;51.92;100143.03;5020173;28;19921;-76
2021/09/11 12:01:32;;;;;;;;;;;;;;;20.37;52.19;100148.75;5025715;28;19931;-78
2021/09/11 12:03:57;;;;;;;;;;;;;;;20.36;52.48;100141.75;5008443;28;19961;-77
2021/09/11 12:06:49;;;;;;;;;;;;;;;20.36;53.07;100144.38;5014778;28;20572;-78
2021/09/11 12:09:16;;;;;;;;;;;;;;;20.32;53.02;100137.53;5025148;28;19971;-77
2021/09/11 12:11:43;;;;;;;;;;;;;;;20.27;53.40;100143.00;5014022;28;19924;-76
2021/09/11 12:14:33;;;;;;;;;;;;;;;20.26;53.40;100127.22;4998589;28;19917;-76
2021/09/11 12:17:20;;;;;;;;;;;;;;;20.30;53.49;100128.81;5006434;28;19917;-78
2021/09/11 12:19:49;;;;;;;;;;;;;;;20.30;53.36;100132.28;5007024;28;19917;-78
2021/09/11 12:22:19;;;;;;;;;;;;;;;20.30;53.47;100129.63;5025330;28;19928;-78
2021/09/11 12:25:03;;;;;;;;;;;;;;;20.15;53.97;100115.34;4995219;28;19917;-78
2021/09/11 12:27:32;;;;;;;;;;;;;;;20.16;54.12;100114.44;5045056;28;19917;-77
2021/09/11 12:30:04;;;;;;;;;;;;;;;20.20;54.64;100114.25;5024673;28;19916;-79
2021/09/11 12:32:30;;;;;;;;;;;;;;;20.30;53.83;100113.78;5041372;28;20007;-77
2021/09/11 12:35:04;;;;;;;;;;;;;;;20.23;54.09;100111.50;5040437;28;20011;-79
2021/09/11 12:37:29;;;;;;;;;;;;;;;20.10;54.65;100112.03;5009574;28;19942;-78
2021/09/11 12:39:56;;;;;;;;;;;;;;;20.09;54.58;100115.59;5039307;28;19980;-77
2021/09/11 12:42:24;;;;;;;;;;;;;;;20.15;54.87;100110.06;5027833;28;20613;-77
2021/09/11 12:44:50;;;;;;;;;;;;;;;20.12;54.58;100104.03;5044267;28;19928;-77
2021/09/11 12:47:25;;;;;;;;;;;;;;;20.06;54.94;100099.88;5028930;28;19917;-79
2021/09/11 12:49:53;;;;;;;;;;;;;;;20.09;55.10;100097.13;5033333;28;19927;-78
2021/09/11 12:52:21;;;;;;;;;;;;;;;20.25;55.08;100097.31;5034756;28;19924;-77
2021/09/11 12:54:50;;;;;;;;;;;;;;;20.25;54.88;100099.06;5017393;28;19921;-77
2021/09/11 12:57:15;;;;;;;;;;;;;;;20.13;54.96;100092.56;5047586;28;19921;-77
2021/09/11 12:59:41;;;;;;;;;;;;;;;20.17;55.29;100092.38;5029311;28;20047;-78
2021/09/11 13:02:07;;;;;;;;;;;;;;;20.30;54.76;100082.09;5032019;28;19947;-79
2021/09/11 13:04:33;;;;;;;;;;;;;;;20.24;54.20;100086.78;5031978;28;19979;-80
2021/09/11 13:07:01;;;;;;;;;;;;;;;20.14;55.07;100070.50;5050265;28;19963;-77
2021/09/11 13:09:27;;;;;;;;;;;;;;;20.24;55.53;100076.22;5015508;28;20379;-77
2021/09/11 13:11:53;;;;;;;;;;;;;;;20.26;54.56;100071.72;5030472;28;19920;-78
2021/09/11 13:14:18;;;;;;;;;;;;;;;20.20;55.49;100077.28;5034484;28;19963;-79
2021/09/11 13:16:45;;;;;;;;;;;;;;;20.04;55.90;100077.13;5034455;28;20292;-79
2021/09/11 13:19:11;;;;;;;;;;;;;;;19.93;56.18;100080.22;5029620;28;20336;-77
2021/09/11 13:21:38;;;;;;;;;;;;;;;19.85;56.62;100078.75;5012970;28;20015;-78
2021/09/11 13:24:08;;;;;;;;;;;;;;;19.89;56.47;100076.00;4994930;28;19963;-78
2021/09/11 13:26:35;;;;;;;;;;;;;;;19.84;56.31;100077.03;5026936;28;19956;-76
2021/09/11 13:29:27;;;;;;;;;;;;;;;19.86;56.90;100067.25;5030393;28;19920;-79
2021/09/11 13:31:57;;;;;;;;;;;;;;;19.93;56.77;100067.03;4992155;28;19913;-78
2021/09/11 13:34:30;;;;;;;;;;;;;;;19.98;56.93;100063.25;5009954;28;19916;-79
2021/09/11 13:37:00;;;;;;;;;;;;;;;20.09;56.88;100070.72;5043703;28;19923;-79
2021/09/11 13:39:33;;;;;;;;;;;;;;;20.21;56.82;100060.50;5012851;28;20380;-76
2021/09/11 13:42:25;;;;;;;;;;;;;;;20.42;56.21;100056.03;5026059;28;19921;-76